Main page
METAR-TAF:

METAR-TAF

Airports :

Munich Airport

Munich, Germany

latitude: 48-21N, longitude: 011-47E, elevation: 453 m

Current weather observation

The report was made 38 minutes ago, at 12:50 UTC
Wind 11 kt from the East, varying between Northeast and Southeast
Temperature 21°C
Humidity 21%
Pressure 1019 hPa
Visibility 10 km or more
no clouds below 1500 m and no cumulonimbus

METAR: EDDM 211250Z 09011KT 040V140 CAVOK 21/M02 Q1019 NOSIG

Time: 15:28 (13:28 UTC)

Forecast

The report was made 2 hours and 28 minutes ago, at 11:00 UTC
Forecast valid from 21 at 12 UTC to 22 at 18 UTC
Wind 12 kt from the East
Visibility 10 km or more
no clouds below 1500 m and no cumulonimbus
Becoming
from 21 at 17 UTC to 21 at 19 UTC
Wind 5 kt from the East/Northeast
Becoming
from 22 at 07 UTC to 22 at 09 UTC
Wind 12 kt from the East
Temporary
from 22 at 09 UTC to 22 at 17 UTC
Wind 15 kt from the East with gusts up to 25 kt

TAF: EDDM 211100Z 2112/2218 08012KT CAVOK BECMG 2117/2119 06005KT BECMG 2207/2209 09012KT TEMPO 2209/2217 09015G25KT

Weather observations and forecasts of more than 4000 airports (METAR and TAF reports).

The available stations are represented by yellow and red dots on the map.

Hover mouse over dot to see the name of the station.

Then click to see weather observations and forecasts.

To change the map : click on the green buttons with a black cross to zoom in, on the green button with a dash to zoom out, or on the green arrows for adjacent maps.


METAR-TAF: